Time;durP1;ratioP1;P1;durP2;ratioP2;P2;SDS_P1;SDS_P2;PMS_P1;PMS_P2;Temp;Humidity;BMP_temperature;BMP_pressure;BME280_temperature;BME280_humidity;BME280_pressure;Samples;Min_cycle;Max_cycle;Signal;HPM_P1;HPM_P2
2022/08/12 00:45:05;;;;;;;;;;;29.30;40.30;;;;;;5094043;28;20007;-62
2022/08/12 00:47:31;;;;;;;;;;;29.30;40.10;;;;;;5093312;28;19994;-62
2022/08/12 00:49:56;;;;;;;;;;;29.20;40.10;;;;;;5050233;28;19919;-62
2022/08/12 00:52:22;;;;;;;;;;;29.30;40.10;;;;;;5055185;28;19909;-62
2022/08/12 00:54:48;;;;;;;;;;;29.20;40.30;;;;;;5077981;28;19912;-62
2022/08/12 00:57:14;;;;;;;;;;;29.20;40.30;;;;;;5083776;28;19919;-61
2022/08/12 00:59:44;;;;;;;;;;;29.20;40.10;;;;;;5078421;28;20380;-62
2022/08/12 01:02:10;;;;;;;;;;;29.20;39.90;;;;;;5088026;28;19912;-61
2022/08/12 01:12:48;;;;;;;;;;;29.20;40.20;;;;;;5104950;28;19923;-62
2022/08/12 01:15:13;;;;;;;;;;;29.20;40.30;;;;;;5115840;28;19916;-61
2022/08/12 01:17:43;;;;;;;;;;;29.20;39.80;;;;;;5102421;28;19923;-62
2022/08/12 01:20:10;;;;;;;;;;;29.20;40.00;;;;;;5115707;28;19953;-62
2022/08/12 01:22:37;;;;;;;;;;;29.20;40.30;;;;;;5071356;28;19912;-62
2022/08/12 01:25:05;;;;;;;;;;;29.20;40.20;;;;;;5094974;28;19955;-61
2022/08/12 01:27:32;;;;;;;;;;;29.10;40.20;;;;;;5115513;28;19908;-61
2022/08/12 01:29:57;;;;;;;;;;;29.10;40.20;;;;;;5115636;28;19911;-61
2022/08/12 01:32:23;;;;;;;;;;;29.10;40.20;;;;;;5095640;28;20006;-62
2022/08/12 01:35:00;;;;;;;;;;;29.10;40.10;;;;;;5095670;28;20014;-61
2022/08/12 01:37:25;;;;;;;;;;;29.10;40.20;;;;;;5113148;28;19922;-61
2022/08/12 01:39:52;;;;;;;;;;;29.00;40.10;;;;;;5103569;28;20283;-61
2022/08/12 01:42:19;;;;;;;;;;;29.10;40.20;;;;;;5094392;28;19916;-62
2022/08/12 01:44:44;;;;;;;;;;;29.10;40.10;;;;;;5093601;28;20014;-61
2022/08/12 01:47:29;;;;;;;;;;;29.10;40.20;;;;;;5112869;28;20362;-61
2022/08/12 01:50:14;;;;;;;;;;;29.10;40.20;;;;;;5111837;28;19959;-62
2022/08/12 01:52:52;;;;;;;;;;;29.10;39.90;;;;;;5104209;28;19920;-61
2022/08/12 01:55:18;;;;;;;;;;;29.00;39.70;;;;;;5103547;28;19916;-61
2022/08/12 01:57:46;;;;;;;;;;;29.00;39.60;;;;;;5090897;28;19915;-62
2022/08/12 02:00:16;;;;;;;;;;;29.00;39.60;;;;;;5094627;28;20264;-62
2022/08/12 02:03:02;;;;;;;;;;;29.00;40.20;;;;;;5111399;28;19920;-61
2022/08/12 02:11:21;;;;;;;;;;;29.00;39.90;;;;;;5094968;28;19961;-62
2022/08/12 02:14:05;;;;;;;;;;;29.00;39.80;;;;;;5088771;28;19927;-62
2022/08/12 02:16:40;;;;;;;;;;;29.00;39.90;;;;;;5108136;28;20016;-61
2022/08/12 02:19:11;;;;;;;;;;;29.00;40.20;;;;;;5104220;28;19922;-61
2022/08/12 02:21:38;;;;;;;;;;;29.00;39.80;;;;;;5110983;28;19946;-62
2022/08/12 02:24:03;;;;;;;;;;;29.00;39.90;;;;;;5091757;28;20060;-62
2022/08/12 02:26:29;;;;;;;;;;;29.00;40.00;;;;;;5094141;28;19920;-61
2022/08/12 02:28:55;;;;;;;;;;;29.00;40.10;;;;;;5092334;28;19962;-61
2022/08/12 02:31:21;;;;;;;;;;;29.00;39.60;;;;;;5110642;28;19915;-61
2022/08/12 02:33:46;;;;;;;;;;;28.90;39.50;;;;;;5092622;28;19923;-62
2022/08/12 02:36:12;;;;;;;;;;;29.00;39.50;;;;;;5113696;28;20305;-61
2022/08/12 02:38:39;;;;;;;;;;;29.00;39.60;;;;;;5109944;28;19997;-62
2022/08/12 02:41:05;;;;;;;;;;;29.00;40.20;;;;;;5093666;28;20321;-62
2022/08/12 02:43:44;;;;;;;;;;;29.00;39.50;;;;;;5113425;28;19957;-61
2022/08/12 02:46:10;;;;;;;;;;;28.90;40.20;;;;;;5083973;28;19988;-62
2022/08/12 02:48:44;;;;;;;;;;;28.90;39.80;;;;;;5109692;28;20323;-61
2022/08/12 02:51:10;;;;;;;;;;;28.90;39.70;;;;;;5112321;28;19915;-62
2022/08/12 02:53:36;;;;;;;;;;;28.90;39.90;;;;;;5093798;28;19977;-62
2022/08/12 02:56:02;;;;;;;;;;;28.90;39.60;;;;;;5095703;28;19912;-62
2022/08/12 02:58:28;;;;;;;;;;;29.00;39.80;;;;;;5113119;28;20011;-62
2022/08/12 03:00:53;;;;;;;;;;;28.90;40.00;;;;;;5095241;28;19915;-62
2022/08/12 03:03:19;;;;;;;;;;;28.90;40.10;;;;;;5090587;28;20868;-62
2022/08/12 03:05:53;;;;;;;;;;;28.90;39.60;;;;;;5094313;28;20303;-62
2022/08/12 03:08:19;;;;;;;;;;;28.90;39.60;;;;;;5087189;28;19912;-61
2022/08/12 03:10:44;;;;;;;;;;;28.90;39.60;;;;;;5075027;28;20006;-61
2022/08/12 03:13:10;;;;;;;;;;;28.90;39.70;;;;;;5097609;28;20328;-62
2022/08/12 03:15:36;;;;;;;;;;;28.90;39.60;;;;;;5094370;28;20283;-62
2022/08/12 03:18:13;;;;;;;;;;;28.90;39.80;;;;;;5110627;28;19908;-62
2022/08/12 03:20:39;;;;;;;;;;;28.80;40.00;;;;;;5114630;28;20401;-62
2022/08/12 03:23:07;;;;;;;;;;;28.80;39.70;;;;;;5094174;28;19915;-62
2022/08/12 03:25:37;;;;;;;;;;;28.80;40.00;;;;;;5094598;28;19958;-61
2022/08/12 03:28:02;;;;;;;;;;;28.70;40.00;;;;;;5095121;28;20283;-62
2022/08/12 03:30:30;;;;;;;;;;;28.70;40.00;;;;;;5094990;28;19907;-61
2022/08/12 03:32:56;;;;;;;;;;;28.70;40.00;;;;;;5089052;28;19912;-61
2022/08/12 03:35:25;;;;;;;;;;;28.70;39.60;;;;;;5107688;28;20295;-61
2022/08/12 03:37:51;;;;;;;;;;;28.70;39.70;;;;;;5112363;28;19924;-61
2022/08/12 04:02:13;;;;;;;;;;;28.60;39.90;;;;;;5112163;28;19918;-62
2022/08/12 04:04:43;;;;;;;;;;;28.60;39.90;;;;;;5102985;28;19908;-61
2022/08/12 04:07:09;;;;;;;;;;;28.60;39.90;;;;;;5107841;28;20372;-61
2022/08/12 04:09:36;;;;;;;;;;;28.60;39.90;;;;;;5087410;28;19912;-61
2022/08/12 04:14:46;;;;;;;;;;;28.50;40.00;;;;;;5088913;28;20010;-62
2022/08/12 04:17:11;;;;;;;;;;;28.50;39.90;;;;;;5109173;28;20431;-61
2022/08/12 04:19:37;;;;;;;;;;;28.50;39.80;;;;;;5110591;28;20387;-61
2022/08/12 04:22:02;;;;;;;;;;;28.50;40.00;;;;;;5075117;28;20288;-61
2022/08/12 04:24:28;;;;;;;;;;;28.50;39.90;;;;;;5085772;28;19926;-62
2022/08/12 04:26:54;;;;;;;;;;;28.50;39.90;;;;;;5089783;28;19918;-61
2022/08/12 04:29:20;;;;;;;;;;;28.50;39.80;;;;;;5072681;28;19915;-61
2022/08/12 04:31:45;;;;;;;;;;;28.50;39.90;;;;;;5089491;28;19941;-61
2022/08/12 04:34:11;;;;;;;;;;;28.40;40.10;;;;;;5090070;28;19911;-61
2022/08/12 04:36:37;;;;;;;;;;;28.30;40.10;;;;;;5110946;28;19916;-62
2022/08/12 04:39:03;;;;;;;;;;;28.30;40.20;;;;;;5108389;28;19927;-61
2022/08/12 04:41:28;;;;;;;;;;;28.30;40.20;;;;;;5105778;28;19912;-61
2022/08/12 04:43:54;;;;;;;;;;;28.30;40.30;;;;;;5108390;28;20391;-62
2022/08/12 04:46:20;;;;;;;;;;;28.30;40.20;;;;;;5107702;28;19959;-61
2022/08/12 04:48:45;;;;;;;;;;;28.30;40.10;;;;;;5089900;28;19912;-62
2022/08/12 04:51:11;;;;;;;;;;;28.40;40.10;;;;;;5109929;28;19919;-61
2022/08/12 04:53:37;;;;;;;;;;;28.30;40.30;;;;;;5109495;28;19922;-62
2022/08/12 04:56:03;;;;;;;;;;;28.30;40.30;;;;;;5105863;28;19919;-61
2022/08/12 04:58:28;;;;;;;;;;;28.30;40.30;;;;;;5105595;28;19939;-61
2022/08/12 05:00:54;;;;;;;;;;;28.30;40.30;;;;;;5110019;28;20395;-61
2022/08/12 05:03:19;;;;;;;;;;;28.30;40.40;;;;;;5109213;28;20448;-61
2022/08/12 05:05:45;;;;;;;;;;;28.30;40.40;;;;;;5110656;28;19916;-61
2022/08/12 05:08:16;;;;;;;;;;;28.20;40.40;;;;;;5084230;28;20399;-61
2022/08/12 05:10:42;;;;;;;;;;;28.20;40.50;;;;;;5105173;28;19930;-61
2022/08/12 05:13:09;;;;;;;;;;;28.30;40.60;;;;;;5109275;28;19916;-61
2022/08/12 05:15:38;;;;;;;;;;;28.10;40.60;;;;;;5103876;28;19923;-61
2022/08/12 05:18:04;;;;;;;;;;;28.20;40.70;;;;;;5108716;28;19957;-61
2022/08/12 05:20:29;;;;;;;;;;;28.10;40.80;;;;;;5111197;28;20355;-62
2022/08/12 05:23:05;;;;;;;;;;;28.10;40.80;;;;;;5092438;28;20379;-61
2022/08/12 05:25:31;;;;;;;;;;;28.10;40.90;;;;;;5088093;28;19919;-61
2022/08/12 05:27:56;;;;;;;;;;;28.10;40.90;;;;;;5092166;28;19915;-61
2022/08/12 05:30:21;;;;;;;;;;;28.10;41.00;;;;;;5109767;28;19997;-62
2022/08/12 05:32:47;;;;;;;;;;;28.10;41.00;;;;;;5103586;28;19920;-61
2022/08/12 05:35:14;;;;;;;;;;;28.10;41.00;;;;;;5108292;28;20011;-61
2022/08/12 05:37:40;;;;;;;;;;;28.10;41.10;;;;;;5105780;28;19951;-62
2022/08/12 05:40:05;;;;;;;;;;;28.10;41.20;;;;;;5101981;28;20406;-61
2022/08/12 05:42:31;;;;;;;;;;;28.10;41.20;;;;;;5112635;28;19911;-61
2022/08/12 05:44:57;;;;;;;;;;;28.10;41.20;;;;;;5110188;28;19912;-61
2022/08/12 05:47:22;;;;;;;;;;;28.10;41.20;;;;;;5109832;28;20272;-61
2022/08/12 05:49:48;;;;;;;;;;;28.10;41.30;;;;;;5110311;28;19912;-61
2022/08/12 05:52:13;;;;;;;;;;;28.10;41.30;;;;;;5094757;28;19937;-61
2022/08/12 05:54:43;;;;;;;;;;;28.10;41.40;;;;;;5111518;28;20031;-61
2022/08/12 05:57:10;;;;;;;;;;;28.00;41.50;;;;;;5113346;28;20026;-61
2022/08/12 05:59:37;;;;;;;;;;;28.00;41.80;;;;;;5112338;28;19968;-61
2022/08/12 06:02:06;;;;;;;;;;;27.90;41.80;;;;;;5095671;28;19965;-61
2022/08/12 06:04:32;;;;;;;;;;;27.90;41.90;;;;;;5105764;28;20006;-62
2022/08/12 06:06:57;;;;;;;;;;;27.90;41.90;;;;;;5087069;28;20000;-61
2022/08/12 06:09:25;;;;;;;;;;;27.90;41.90;;;;;;5092501;28;19962;-61
2022/08/12 06:11:50;;;;;;;;;;;28.00;41.90;;;;;;5091388;28;19969;-61
2022/08/12 06:14:16;;;;;;;;;;;28.00;42.00;;;;;;5090745;28;19923;-61
2022/08/12 06:16:42;;;;;;;;;;;28.00;42.00;;;;;;5112942;28;20406;-62
2022/08/12 06:19:09;;;;;;;;;;;27.90;42.10;;;;;;5114462;28;20367;-61
2022/08/12 06:21:36;;;;;;;;;;;28.00;42.10;;;;;;5113606;28;19961;-59
2022/08/12 06:24:02;;;;;;;;;;;27.90;42.10;;;;;;5103817;28;19919;-62
2022/08/12 06:26:27;;;;;;;;;;;28.00;42.60;;;;;;5109404;28;19912;-62
2022/08/12 06:28:53;;;;;;;;;;;28.00;42.40;;;;;;5112070;28;19912;-62
2022/08/12 06:31:18;;;;;;;;;;;28.00;42.30;;;;;;5112695;28;19916;-62
2022/08/12 06:33:45;;;;;;;;;;;27.90;42.20;;;;;;5108705;28;20493;-62
2022/08/12 06:36:12;;;;;;;;;;;27.90;42.30;;;;;;5084574;28;19919;-62
2022/08/12 06:38:38;;;;;;;;;;;27.90;42.50;;;;;;5106190;28;19920;-61
2022/08/12 06:43:50;;;;;;;;;;;27.90;42.50;;;;;;5114162;28;20637;-61
2022/08/12 06:46:15;;;;;;;;;;;27.90;42.50;;;;;;5113591;28;19920;-61
2022/08/12 06:48:44;;;;;;;;;;;27.90;42.60;;;;;;5112545;28;19922;-62
2022/08/12 06:51:10;;;;;;;;;;;27.90;42.70;;;;;;5096430;28;20345;-62
2022/08/12 06:53:35;;;;;;;;;;;27.90;42.70;;;;;;5092541;28;19915;-62
2022/08/12 06:56:01;;;;;;;;;;;27.90;42.80;;;;;;5092214;28;19946;-62
2022/08/12 06:58:27;;;;;;;;;;;27.90;42.80;;;;;;5112128;28;19907;-62
2022/08/12 07:00:54;;;;;;;;;;;27.90;42.90;;;;;;5095763;28;20252;-62
2022/08/12 07:03:29;;;;;;;;;;;27.90;42.90;;;;;;5113571;28;19912;-62
2022/08/12 07:05:56;;;;;;;;;;;27.90;43.00;;;;;;5106497;28;19912;-61
2022/08/12 07:08:26;;;;;;;;;;;27.90;43.00;;;;;;5111029;27;19911;-62
2022/08/12 07:10:57;;;;;;;;;;;27.90;43.00;;;;;;5113688;28;20373;-62
2022/08/12 07:13:34;;;;;;;;;;;27.90;42.90;;;;;;5077457;28;19920;-62
2022/08/12 07:16:01;;;;;;;;;;;28.00;43.90;;;;;;5099785;28;19923;-62
2022/08/12 07:18:30;;;;;;;;;;;27.90;43.20;;;;;;5083468;28;19912;-62
2022/08/12 07:20:57;;;;;;;;;;;27.90;43.20;;;;;;5087578;28;19912;-62
2022/08/12 07:23:23;;;;;;;;;;;27.90;43.30;;;;;;5092436;28;19912;-61
2022/08/12 07:25:48;;;;;;;;;;;28.00;43.20;;;;;;5091998;28;19961;-62
2022/08/12 07:28:18;;;;;;;;;;;28.00;43.00;;;;;;5091840;28;20378;-62
2022/08/12 07:30:43;;;;;;;;;;;28.10;42.90;;;;;;5085413;28;19916;-62
2022/08/12 07:33:09;;;;;;;;;;;28.00;43.00;;;;;;5085679;28;19919;-62
2022/08/12 07:35:41;;;;;;;;;;;28.00;43.20;;;;;;5091294;28;19920;-62
2022/08/12 07:38:24;;;;;;;;;;;28.00;43.30;;;;;;5093270;28;20427;-62
2022/08/12 07:41:12;;;;;;;;;;;28.00;43.30;;;;;;5086010;28;19912;-62
2022/08/12 07:43:39;;;;;;;;;;;28.00;43.20;;;;;;5081974;28;19912;-62
2022/08/12 07:46:06;;;;;;;;;;;28.00;43.20;;;;;;5063500;28;19919;-62
2022/08/12 07:48:35;;;;;;;;;;;28.00;43.40;;;;;;5081730;28;19995;-62
2022/08/12 07:51:01;;;;;;;;;;;28.00;43.30;;;;;;5086828;28;20017;-61
2022/08/12 07:53:26;;;;;;;;;;;28.00;43.40;;;;;;5087760;28;20002;-62
2022/08/12 07:55:52;;;;;;;;;;;28.00;43.40;;;;;;5089470;28;19931;-62
2022/08/12 07:58:17;;;;;;;;;;;28.00;43.20;;;;;;5090115;28;19912;-62
2022/08/12 08:00:43;;;;;;;;;;;28.10;43.10;;;;;;5087871;28;19919;-62
2022/08/12 08:03:12;;;;;;;;;;;28.20;43.10;;;;;;5087627;28;19915;-62
2022/08/12 08:05:45;;;;;;;;;;;28.10;43.30;;;;;;5081187;28;20005;-62
2022/08/12 08:08:14;;;;;;;;;;;28.10;43.40;;;;;;5091469;28;20406;-62
2022/08/12 08:10:40;;;;;;;;;;;28.10;43.40;;;;;;5091887;28;20380;-62
2022/08/12 08:13:07;;;;;;;;;;;28.00;43.50;;;;;;5086656;28;19981;-62
2022/08/12 08:15:33;;;;;;;;;;;28.10;43.60;;;;;;5087752;28;19963;-62
2022/08/12 08:18:03;;;;;;;;;;;28.10;43.60;;;;;;5085667;28;19919;-62
2022/08/12 08:20:32;;;;;;;;;;;28.10;43.70;;;;;;5066224;28;20007;-62
2022/08/12 08:22:58;;;;;;;;;;;28.10;43.80;;;;;;5082861;28;19920;-63
2022/08/12 08:25:30;;;;;;;;;;;28.10;43.70;;;;;;5088508;28;20011;-62
2022/08/12 08:27:56;;;;;;;;;;;28.20;43.70;;;;;;5092611;28;19947;-63
2022/08/12 08:30:22;;;;;;;;;;;28.20;43.80;;;;;;5088070;28;19916;-63
2022/08/12 08:32:48;;;;;;;;;;;28.20;43.60;;;;;;5089601;28;19947;-62
2022/08/12 08:35:13;;;;;;;;;;;28.30;43.50;;;;;;5090588;28;19955;-62
2022/08/12 08:37:39;;;;;;;;;;;28.30;43.40;;;;;;5089449;28;19918;-63
2022/08/12 08:42:49;;;;;;;;;;;28.40;43.40;;;;;;5085956;28;19928;-62
2022/08/12 08:45:15;;;;;;;;;;;28.50;43.50;;;;;;5086532;28;20291;-63
2022/08/12 08:47:47;;;;;;;;;;;28.40;43.40;;;;;;5088188;28;19963;-63
2022/08/12 08:50:15;;;;;;;;;;;28.50;43.20;;;;;;5069568;28;20291;-62
2022/08/12 08:52:41;;;;;;;;;;;28.50;43.10;;;;;;5086629;28;19920;-62
2022/08/12 08:55:08;;;;;;;;;;;28.50;43.00;;;;;;5086536;28;19916;-63
2022/08/12 08:57:33;;;;;;;;;;;28.60;42.90;;;;;;5088514;28;19966;-62
2022/08/12 08:59:59;;;;;;;;;;;28.60;42.70;;;;;;5071862;28;19996;-63
2022/08/12 09:02:24;;;;;;;;;;;28.60;42.50;;;;;;5088112;28;19923;-64
2022/08/12 09:04:50;;;;;;;;;;;28.60;42.20;;;;;;5086152;28;19920;-64
2022/08/12 09:07:17;;;;;;;;;;;28.60;42.20;;;;;;5088626;28;19920;-63
2022/08/12 09:09:42;;;;;;;;;;;28.70;42.30;;;;;;5065800;28;19922;-61
2022/08/12 09:14:53;;;;;;;;;;;28.70;42.00;;;;;;5089730;28;19927;-63
2022/08/12 09:17:21;;;;;;;;;;;28.70;42.10;;;;;;5091084;28;19924;-63
2022/08/12 09:19:47;;;;;;;;;;;28.70;42.00;;;;;;5072781;28;20284;-63
2022/08/12 09:22:12;;;;;;;;;;;28.70;41.90;;;;;;5075893;28;19908;-62
2022/08/12 09:24:38;;;;;;;;;;;28.80;41.90;;;;;;5091605;28;19913;-63
2022/08/12 09:27:05;;;;;;;;;;;28.80;41.90;;;;;;5092374;28;19916;-62
2022/08/12 09:29:32;;;;;;;;;;;28.80;42.40;;;;;;5088290;28;19916;-63
2022/08/12 09:31:58;;;;;;;;;;;28.90;41.90;;;;;;5076517;28;19916;-63
2022/08/12 09:34:27;;;;;;;;;;;28.90;41.90;;;;;;5093215;28;19977;-63
2022/08/12 09:36:53;;;;;;;;;;;28.90;41.80;;;;;;5094624;28;20010;-63
2022/08/12 09:39:18;;;;;;;;;;;28.90;41.90;;;;;;5073219;28;20443;-63
2022/08/12 09:41:44;;;;;;;;;;;28.90;42.10;;;;;;5073771;28;19916;-62
2022/08/12 09:46:53;;;;;;;;;;;29.00;42.10;;;;;;5089168;28;20666;-63
2022/08/12 09:49:20;;;;;;;;;;;29.00;41.90;;;;;;5071593;28;19916;-63
2022/08/12 09:51:46;;;;;;;;;;;29.10;41.80;;;;;;5090774;28;20253;-62
2022/08/12 09:54:12;;;;;;;;;;;29.10;41.70;;;;;;5091614;28;19934;-63
2022/08/12 09:56:38;;;;;;;;;;;29.10;41.20;;;;;;5092552;28;19920;-62
2022/08/12 09:59:06;;;;;;;;;;;29.10;40.90;;;;;;5091778;28;19908;-61
2022/08/12 10:01:32;;;;;;;;;;;29.00;41.10;;;;;;5092968;28;19923;-63
2022/08/12 10:04:00;;;;;;;;;;;29.00;40.90;;;;;;5088706;28;19916;-63
2022/08/12 10:06:28;;;;;;;;;;;29.10;40.90;;;;;;5079369;28;19918;-63
2022/08/12 10:08:53;;;;;;;;;;;29.10;40.60;;;;;;5074155;28;20396;-63
2022/08/12 10:14:04;;;;;;;;;;;29.10;40.30;;;;;;5107483;28;19966;-63
2022/08/12 10:16:33;;;;;;;;;;;29.20;40.30;;;;;;5112940;28;19951;-63
2022/08/12 10:19:00;;;;;;;;;;;29.20;39.90;;;;;;5091723;28;19912;-63
2022/08/12 10:21:26;;;;;;;;;;;29.30;40.10;;;;;;5111071;28;19911;-63
2022/08/12 10:23:52;;;;;;;;;;;29.30;40.30;;;;;;5110496;28;20260;-63
2022/08/12 10:31:53;;;;;;;;;;;29.30;39.60;;;;;;5098992;28;20349;-63
2022/08/12 10:34:21;;;;;;;;;;;29.30;39.50;;;;;;5100923;28;20023;-63
2022/08/12 10:36:47;;;;;;;;;;;29.40;40.20;;;;;;5079706;28;20325;-64
2022/08/12 10:39:14;;;;;;;;;;;29.40;39.30;;;;;;5083689;28;19912;-63
2022/08/12 10:44:23;;;;;;;;;;;29.50;39.10;;;;;;5114002;28;19915;-63
2022/08/12 10:46:51;;;;;;;;;;;29.60;38.70;;;;;;5095820;28;19912;-63
2022/08/12 10:49:19;;;;;;;;;;;29.60;38.30;;;;;;5106774;28;19919;-63
2022/08/12 10:51:48;;;;;;;;;;;29.60;37.80;;;;;;5114033;28;19911;-63
2022/08/12 10:54:15;;;;;;;;;;;29.50;37.90;;;;;;5091376;28;19918;-63
2022/08/12 10:56:44;;;;;;;;;;;29.60;38.40;;;;;;5107547;28;19919;-63
2022/08/12 10:59:09;;;;;;;;;;;29.60;38.50;;;;;;5088036;28;19923;-63
2022/08/12 11:01:35;;;;;;;;;;;29.60;38.10;;;;;;5112672;28;19912;-63
2022/08/12 11:04:01;;;;;;;;;;;29.60;38.00;;;;;;5110980;28;19976;-63
2022/08/12 11:06:26;;;;;;;;;;;29.60;37.40;;;;;;5112580;28;19950;-63
2022/08/12 11:08:55;;;;;;;;;;;29.60;37.20;;;;;;5108144;28;19943;-63
2022/08/12 11:11:20;;;;;;;;;;;29.70;37.20;;;;;;5108206;28;19929;-63
2022/08/12 11:13:46;;;;;;;;;;;29.70;36.90;;;;;;5110650;28;20496;-63
2022/08/12 11:16:12;;;;;;;;;;;29.70;36.80;;;;;;5108112;28;19977;-63
2022/08/12 11:18:40;;;;;;;;;;;29.70;37.20;;;;;;5110454;28;20295;-63
2022/08/12 11:21:06;;;;;;;;;;;29.70;36.90;;;;;;5112134;28;19912;-63
2022/08/12 11:23:31;;;;;;;;;;;29.70;37.10;;;;;;5112168;28;20597;-63
2022/08/12 11:25:57;;;;;;;;;;;29.70;37.90;;;;;;5112789;28;19916;-63
2022/08/12 11:28:22;;;;;;;;;;;29.70;37.30;;;;;;5108479;28;19912;-63
2022/08/12 11:30:48;;;;;;;;;;;29.80;37.00;;;;;;5106637;28;19908;-63
2022/08/12 11:33:13;;;;;;;;;;;29.80;36.60;;;;;;5087286;28;19916;-63
2022/08/12 11:35:42;;;;;;;;;;;29.80;36.80;;;;;;5088735;28;19912;-63
2022/08/12 11:38:08;;;;;;;;;;;29.80;36.80;;;;;;5088912;28;19927;-63
2022/08/12 11:40:33;;;;;;;;;;;29.80;36.90;;;;;;5107901;28;20288;-63
2022/08/12 11:42:59;;;;;;;;;;;29.80;36.50;;;;;;5111833;28;19908;-63
2022/08/12 11:45:28;;;;;;;;;;;29.80;36.40;;;;;;5105002;28;19916;-63
2022/08/12 11:47:54;;;;;;;;;;;29.80;36.40;;;;;;5106180;28;19922;-63
2022/08/12 11:50:19;;;;;;;;;;;29.90;36.70;;;;;;5106850;28;19912;-63
2022/08/12 11:52:46;;;;;;;;;;;29.90;36.60;;;;;;5095793;28;20297;-62
2022/08/12 11:55:11;;;;;;;;;;;29.90;36.60;;;;;;5080993;28;20329;-62
2022/08/12 11:57:47;;;;;;;;;;;29.90;36.30;;;;;;5102541;28;19923;-62
2022/08/12 12:00:12;;;;;;;;;;;29.90;36.10;;;;;;5079557;28;19920;-62
2022/08/12 12:02:38;;;;;;;;;;;30.00;36.60;;;;;;5101523;28;20616;-62
2022/08/12 12:05:04;;;;;;;;;;;29.90;36.70;;;;;;5101549;28;19961;-62
2022/08/12 12:07:29;;;;;;;;;;;29.90;36.60;;;;;;5099332;28;19915;-62
2022/08/12 12:09:54;;;;;;;;;;;29.90;36.40;;;;;;5107937;28;19965;-62
2022/08/12 12:12:21;;;;;;;;;;;29.90;36.70;;;;;;5107290;28;20017;-63
2022/08/12 12:14:46;;;;;;;;;;;29.90;36.60;;;;;;5085184;28;20282;-63
2022/08/12 12:17:13;;;;;;;;;;;29.80;36.40;;;;;;5069712;28;21315;-63
2022/08/12 12:19:39;;;;;;;;;;;29.90;35.80;;;;;;5091687;28;19998;-62
2022/08/12 12:22:04;;;;;;;;;;;29.90;35.20;;;;;;5111860;28;19915;-63
2022/08/12 12:24:29;;;;;;;;;;;30.00;35.10;;;;;;5093238;28;19915;-62
2022/08/12 12:26:55;;;;;;;;;;;30.10;35.90;;;;;;5112395;28;19907;-63
2022/08/12 12:29:20;;;;;;;;;;;30.10;36.40;;;;;;5112130;28;19918;-63
2022/08/12 12:31:46;;;;;;;;;;;30.10;35.80;;;;;;5083589;28;19962;-63
2022/08/12 12:34:11;;;;;;;;;;;30.10;35.20;;;;;;5104604;28;19923;-63
2022/08/12 12:36:37;;;;;;;;;;;30.10;35.20;;;;;;5101242;28;19923;-63
2022/08/12 12:39:02;;;;;;;;;;;30.20;34.80;;;;;;5103091;28;19919;-63
2022/08/12 12:41:28;;;;;;;;;;;30.20;34.50;;;;;;5107114;28;19919;-63
2022/08/12 12:43:53;;;;;;;;;;;30.20;34.30;;;;;;5089159;28;20006;-63
2022/08/12 12:46:19;;;;;;;;;;;30.30;35.20;;;;;;5076215;28;20072;-63
2022/08/12 12:48:44;;;;;;;;;;;30.30;35.30;;;;;;5111143;28;20248;-63
2022/08/12 12:51:16;;;;;;;;;;;30.30;34.80;;;;;;5111179;28;20383;-63
2022/08/12 12:53:42;;;;;;;;;;;30.30;33.70;;;;;;5092926;28;19920;-63
2022/08/12 12:56:19;;;;;;;;;;;30.30;33.70;;;;;;5112014;28;19928;-63
2022/08/12 12:58:45;;;;;;;;;;;30.40;33.80;;;;;;5111740;28;19911;-63
2022/08/12 13:01:12;;;;;;;;;;;30.40;34.50;;;;;;5091805;28;19926;-63
2022/08/12 13:03:39;;;;;;;;;;;30.40;33.80;;;;;;5094048;28;20356;-63
2022/08/12 13:06:04;;;;;;;;;;;30.40;33.50;;;;;;5111860;28;19973;-63
2022/08/12 13:08:30;;;;;;;;;;;30.40;33.50;;;;;;5104464;28;19947;-63
2022/08/12 13:10:59;;;;;;;;;;;30.40;33.10;;;;;;5093698;28;19912;-63
2022/08/12 13:13:24;;;;;;;;;;;30.40;33.20;;;;;;5109952;28;19920;-63
2022/08/12 13:15:50;;;;;;;;;;;30.30;33.50;;;;;;5111410;28;20755;-63
2022/08/12 13:18:18;;;;;;;;;;;30.30;33.50;;;;;;5111740;28;19997;-63
2022/08/12 13:20:44;;;;;;;;;;;30.40;33.20;;;;;;5093830;28;20020;-63
2022/08/12 13:23:10;;;;;;;;;;;30.40;32.90;;;;;;5088960;28;20559;-63
2022/08/12 13:25:35;;;;;;;;;;;30.50;32.70;;;;;;5075266;28;19951;-63
2022/08/12 13:28:02;;;;;;;;;;;30.40;32.70;;;;;;5110854;28;19916;-63
2022/08/12 13:30:28;;;;;;;;;;;30.50;32.90;;;;;;5111552;28;20283;-63
2022/08/12 13:32:56;;;;;;;;;;;30.60;33.40;;;;;;5111616;28;19911;-64
2022/08/12 13:35:21;;;;;;;;;;;30.60;33.60;;;;;;5076488;28;19912;-63
2022/08/12 13:37:53;;;;;;;;;;;30.50;33.20;;;;;;5092387;28;20265;-63
2022/08/12 13:40:19;;;;;;;;;;;30.60;32.80;;;;;;5084248;28;19935;-63
2022/08/12 13:42:46;;;;;;;;;;;30.70;32.80;;;;;;5110576;28;19918;-63
2022/08/12 13:45:12;;;;;;;;;;;30.70;33.60;;;;;;5092968;28;19907;-63
2022/08/12 13:47:54;;;;;;;;;;;30.70;33.10;;;;;;5093251;28;19918;-62
2022/08/12 13:50:31;;;;;;;;;;;30.70;32.50;;;;;;5093001;28;19912;-63
2022/08/12 13:52:58;;;;;;;;;;;30.70;33.00;;;;;;5117014;28;20455;-63
2022/08/12 13:55:24;;;;;;;;;;;30.70;32.90;;;;;;5092941;28;20361;-63
2022/08/12 13:57:51;;;;;;;;;;;30.70;33.10;;;;;;5088522;28;20054;-61
2022/08/12 14:00:16;;;;;;;;;;;30.70;33.20;;;;;;5092648;28;19908;-63
2022/08/12 14:02:42;;;;;;;;;;;30.70;32.40;;;;;;5113339;28;20010;-63
2022/08/12 14:05:08;;;;;;;;;;;30.70;32.10;;;;;;5096641;28;20384;-63
2022/08/12 14:07:54;;;;;;;;;;;30.70;32.50;;;;;;5114069;28;19919;-63
2022/08/12 14:10:35;;;;;;;;;;;30.80;32.90;;;;;;5100263;28;19972;-63
2022/08/12 14:13:10;;;;;;;;;;;30.80;33.10;;;;;;5098963;28;19915;-63
2022/08/12 14:15:40;;;;;;;;;;;30.80;32.50;;;;;;5109827;28;19920;-63
2022/08/12 14:18:06;;;;;;;;;;;30.80;32.00;;;;;;5096333;28;19908;-63
2022/08/12 14:20:32;;;;;;;;;;;30.80;32.20;;;;;;5113686;28;19911;-63
2022/08/12 14:22:58;;;;;;;;;;;30.80;31.40;;;;;;5096251;28;19919;-63
2022/08/12 14:25:25;;;;;;;;;;;30.80;31.60;;;;;;5114034;28;19912;-63
2022/08/12 14:27:53;;;;;;;;;;;30.90;31.90;;;;;;5114581;28;20052;-63
2022/08/12 14:30:19;;;;;;;;;;;30.80;31.40;;;;;;5114531;28;19951;-63
2022/08/12 14:32:44;;;;;;;;;;;30.80;31.10;;;;;;5109736;28;20070;-63
2022/08/12 14:35:10;;;;;;;;;;;30.80;30.70;;;;;;5094506;28;19915;-63
2022/08/12 14:37:36;;;;;;;;;;;30.90;30.80;;;;;;5113552;28;20022;-63
2022/08/12 14:40:02;;;;;;;;;;;30.90;31.10;;;;;;5113453;28;19915;-63
2022/08/12 14:42:28;;;;;;;;;;;30.90;31.60;;;;;;5079532;28;19911;-63
2022/08/12 14:44:56;;;;;;;;;;;30.90;32.20;;;;;;5095824;28;20715;-63
2022/08/12 14:47:22;;;;;;;;;;;30.90;31.10;;;;;;5112193;28;20022;-63
2022/08/12 14:49:47;;;;;;;;;;;30.90;31.30;;;;;;5110399;28;20443;-63
2022/08/12 14:52:12;;;;;;;;;;;30.90;30.80;;;;;;5078189;28;20327;-63
2022/08/12 14:54:38;;;;;;;;;;;30.90;30.00;;;;;;5094760;28;20291;-63
2022/08/12 14:57:05;;;;;;;;;;;30.90;30.00;;;;;;5095882;28;20016;-63
2022/08/12 15:02:18;;;;;;;;;;;30.90;30.20;;;;;;5098737;28;20042;-63
2022/08/12 15:04:43;;;;;;;;;;;30.90;29.80;;;;;;5108963;28;19920;-63
2022/08/12 15:07:10;;;;;;;;;;;30.90;30.00;;;;;;5090654;28;19922;-64
2022/08/12 15:09:35;;;;;;;;;;;30.90;30.00;;;;;;5091817;28;19960;-62
2022/08/12 15:12:00;;;;;;;;;;;30.90;29.10;;;;;;5113414;28;20336;-63
2022/08/12 15:14:26;;;;;;;;;;;30.80;29.10;;;;;;5112149;28;20280;-62
2022/08/12 15:16:52;;;;;;;;;;;30.80;29.40;;;;;;5113621;28;20367;-62
2022/08/12 15:19:17;;;;;;;;;;;30.80;29.40;;;;;;5095049;28;20325;-63
2022/08/12 15:21:42;;;;;;;;;;;30.80;29.60;;;;;;5090466;28;19956;-63
2022/08/12 15:24:08;;;;;;;;;;;30.80;29.70;;;;;;5112612;28;20382;-63
2022/08/12 15:26:37;;;;;;;;;;;30.80;29.40;;;;;;5112370;28;19938;-63
2022/08/12 15:29:04;;;;;;;;;;;30.80;29.60;;;;;;5093576;28;19919;-63
2022/08/12 15:31:30;;;;;;;;;;;30.80;29.80;;;;;;5113584;28;20276;-62
2022/08/12 15:33:55;;;;;;;;;;;30.90;30.10;;;;;;5073986;28;19915;-63
2022/08/12 15:36:21;;;;;;;;;;;30.90;30.60;;;;;;5103213;28;19969;-62
2022/08/12 15:38:47;;;;;;;;;;;30.90;30.30;;;;;;5092418;28;19947;-63
2022/08/12 15:41:13;;;;;;;;;;;30.90;30.00;;;;;;5093943;28;19916;-63
2022/08/12 15:43:39;;;;;;;;;;;30.90;30.00;;;;;;5112867;28;19915;-62
2022/08/12 15:46:08;;;;;;;;;;;30.80;30.00;;;;;;5077946;28;20389;-63
2022/08/12 15:48:33;;;;;;;;;;;30.80;29.70;;;;;;5078174;28;19912;-63
2022/08/12 15:50:59;;;;;;;;;;;30.80;29.90;;;;;;5113044;28;20394;-62
2022/08/12 15:56:09;;;;;;;;;;;30.90;30.00;;;;;;5094394;28;19923;-62
2022/08/12 15:58:35;;;;;;;;;;;30.90;30.00;;;;;;5090570;28;19912;-62
2022/08/12 16:01:01;;;;;;;;;;;30.80;29.80;;;;;;5096334;28;19912;-63
2022/08/12 16:03:32;;;;;;;;;;;30.80;30.00;;;;;;5112683;28;20268;-63
2022/08/12 16:05:58;;;;;;;;;;;30.80;30.00;;;;;;5101919;28;19939;-62